createdAt,value
2023-02-27T00:02:17.769Z,102045.22
2023-02-27T00:04:45.512Z,102039.16
2023-02-27T00:07:13.513Z,102041.88
2023-02-27T00:09:42.541Z,102039.00
2023-02-27T00:12:11.916Z,102044.91
2023-02-27T00:14:39.530Z,102049.66
2023-02-27T00:17:07.856Z,102045.31
2023-02-27T00:19:35.535Z,102043.44
2023-02-27T00:22:03.231Z,102047.00
2023-02-27T00:24:30.901Z,102047.84
2023-02-27T00:26:59.896Z,102046.50
2023-02-27T00:29:27.547Z,102048.03
2023-02-27T00:31:55.267Z,102043.44
2023-02-27T00:34:23.067Z,102051.38
2023-02-27T00:36:50.853Z,102050.75
2023-02-27T00:39:18.552Z,102048.91
2023-02-27T00:41:46.244Z,102048.03
2023-02-27T00:44:15.332Z,102050.44
2023-02-27T00:46:42.977Z,102053.13
2023-02-27T00:49:10.601Z,102042.34
2023-02-27T00:51:38.336Z,102040.66
2023-02-27T00:54:06.307Z,102040.84
2023-02-27T00:56:34.640Z,102040.84
2023-02-27T00:59:02.270Z,102038.00
2023-02-27T01:01:31.457Z,102036.47
2023-02-27T01:03:59.067Z,102035.31
2023-02-27T01:06:26.721Z,102033.00
2023-02-27T01:08:55.845Z,102037.91
2023-02-27T01:11:23.655Z,102034.72
2023-02-27T01:13:51.423Z,102030.00
2023-02-27T01:16:19.068Z,102030.03
2023-02-27T01:18:48.130Z,102031.03
2023-02-27T01:21:15.910Z,102026.84
2023-02-27T01:23:43.531Z,102028.50
2023-02-27T01:26:11.244Z,102023.63
2023-02-27T01:28:39.155Z,102017.56
2023-02-27T01:31:07.034Z,102016.25
2023-02-27T01:33:34.656Z,102016.91
2023-02-27T01:36:03.705Z,102020.81
2023-02-27T01:38:31.412Z,102022.63
2023-02-27T01:41:00.623Z,102019.13
2023-02-27T01:43:28.744Z,102018.78
2023-02-27T01:45:56.662Z,102016.94
2023-02-27T01:48:27.856Z,102013.44
2023-02-27T01:50:59.278Z,102019.81
2023-02-27T01:53:30.790Z,102014.59
2023-02-27T01:56:01.531Z,102012.41
2023-02-27T01:58:29.675Z,102012.75
2023-02-27T02:00:58.210Z,102011.06
2023-02-27T02:03:32.155Z,102008.38
2023-02-27T02:06:03.074Z,102009.53
2023-02-27T02:08:35.738Z,102015.25
2023-02-27T02:11:04.646Z,102015.94
2023-02-27T02:13:33.030Z,102007.03
2023-02-27T02:16:22.910Z,102011.38
2023-02-27T02:19:01.626Z,102009.69
2023-02-27T02:22:00.901Z,102018.28
2023-02-27T02:25:19.013Z,102019.63
2023-02-27T02:27:59.683Z,102015.41
2023-02-27T02:30:55.566Z,102022.31
2023-02-27T02:33:57.563Z,102015.75
2023-02-27T02:36:56.120Z,102019.25
2023-02-27T02:39:49.448Z,102017.75
2023-02-27T02:42:23.374Z,102024.50
2023-02-27T02:45:05.094Z,102028.03
2023-02-27T02:47:41.627Z,102032.59
2023-02-27T02:50:15.683Z,102022.50
2023-02-27T02:52:52.515Z,102028.41
2023-02-27T02:55:25.763Z,102028.22
2023-02-27T02:57:59.795Z,102033.13
2023-02-27T03:00:32.707Z,102030.75
2023-02-27T03:03:05.089Z,102042.72
2023-02-27T03:05:37.003Z,102037.81
2023-02-27T03:08:10.202Z,102037.66
2023-02-27T03:10:43.403Z,102049.94
2023-02-27T03:13:15.054Z,102046.25
2023-02-27T03:15:49.180Z,102048.25
2023-02-27T03:18:22.132Z,102050.59
2023-02-27T03:20:55.919Z,102051.59
2023-02-27T03:23:29.540Z,102059.38
2023-02-27T03:25:59.484Z,102065.25
2023-02-27T03:28:32.831Z,102059.38
2023-02-27T03:31:10.157Z,102060.56
2023-02-27T03:33:44.563Z,102062.72
2023-02-27T03:36:18.963Z,102065.28
2023-02-27T03:38:53.000Z,102062.41
2023-02-27T03:41:28.612Z,102062.91
2023-02-27T03:44:06.541Z,102067.63
2023-02-27T03:46:34.483Z,102068.78
2023-02-27T03:49:02.222Z,102068.63
2023-02-27T03:51:31.503Z,102074.84
2023-02-27T03:54:05.906Z,102070.81
2023-02-27T03:56:40.114Z,102085.66
2023-02-27T03:59:08.247Z,102076.72
2023-02-27T04:01:36.242Z,102078.56
2023-02-27T04:04:08.377Z,102086.47
2023-02-27T04:06:56.416Z,102088.00
2023-02-27T04:09:31.672Z,102081.59
2023-02-27T04:12:20.393Z,102092.06
2023-02-27T04:15:04.797Z,102087.84
2023-02-27T04:17:34.711Z,102094.41
2023-02-27T04:20:35.329Z,102094.41
2023-02-27T04:23:07.479Z,102103.13
2023-02-27T04:25:49.206Z,102100.97
2023-02-27T04:28:24.410Z,102102.13
2023-02-27T04:31:05.377Z,102096.94
2023-02-27T04:33:44.214Z,102095.72
2023-02-27T04:36:17.602Z,102100.97
2023-02-27T04:38:49.240Z,102101.28
2023-02-27T04:41:22.408Z,102099.94
2023-02-27T04:43:53.673Z,102099.09
2023-02-27T04:46:25.713Z,102097.91
2023-02-27T04:48:59.274Z,102101.94
2023-02-27T04:51:30.437Z,102105.16
2023-02-27T04:54:01.791Z,102103.78
2023-02-27T04:56:32.313Z,102102.25
2023-02-27T04:59:04.759Z,102101.59
2023-02-27T05:01:37.043Z,102099.03
2023-02-27T05:04:08.247Z,102094.50
2023-02-27T05:06:38.929Z,102098.34
2023-02-27T05:09:14.847Z,102090.25
2023-02-27T05:11:48.976Z,102100.66
2023-02-27T05:14:22.431Z,102094.25
2023-02-27T05:16:55.330Z,102101.13
2023-02-27T05:19:23.366Z,102100.63
2023-02-27T05:21:57.689Z,102103.94
2023-02-27T05:24:34.086Z,102097.19
2023-02-27T05:27:17.101Z,102098.19
2023-02-27T05:29:50.379Z,102097.69
2023-02-27T05:32:33.466Z,102101.19
2023-02-27T05:35:08.364Z,102110.72
2023-02-27T05:37:42.904Z,102103.00
2023-02-27T05:40:13.638Z,102113.53
2023-02-27T05:42:44.826Z,102115.69
2023-02-27T05:45:20.607Z,102105.81
2023-02-27T05:47:54.787Z,102112.31
2023-02-27T05:50:27.423Z,102119.91
2023-02-27T05:52:59.588Z,102120.28
2023-02-27T05:55:32.321Z,102123.50
2023-02-27T05:58:07.349Z,102122.84
2023-02-27T06:00:40.390Z,102123.88
2023-02-27T06:03:08.234Z,102122.50
2023-02-27T06:05:37.550Z,102131.09
2023-02-27T06:08:05.203Z,102137.16
2023-02-27T06:10:33.311Z,102142.91
2023-02-27T06:13:01.123Z,102145.78
2023-02-27T06:15:28.779Z,102156.22
2023-02-27T06:17:57.890Z,102155.75
2023-02-27T06:20:25.555Z,102166.84
2023-02-27T06:22:53.539Z,102162.00
2023-02-27T06:25:21.984Z,102167.19
2023-02-27T06:27:49.739Z,102169.06
2023-02-27T06:30:18.065Z,102176.97
2023-02-27T06:32:45.696Z,102187.03
2023-02-27T06:35:14.772Z,102181.44
2023-02-27T06:37:42.444Z,102173.91
2023-02-27T06:40:12.456Z,102171.56
2023-02-27T06:42:40.500Z,102172.09
2023-02-27T06:45:10.171Z,102172.44
2023-02-27T06:47:37.879Z,102177.00
2023-02-27T06:50:06.644Z,102182.72
2023-02-27T06:52:35.646Z,102182.72
2023-02-27T06:55:04.485Z,102175.66
2023-02-27T06:57:32.250Z,102182.09
2023-02-27T06:59:59.948Z,102197.25
2023-02-27T07:02:27.678Z,102206.16
2023-02-27T07:04:55.440Z,102203.78
2023-02-27T07:07:34.815Z,102198.41
2023-02-27T07:10:07.660Z,102215.59
2023-02-27T07:12:35.477Z,102225.34
2023-02-27T07:15:03.145Z,102233.09
2023-02-27T07:17:31.643Z,102223.00
2023-02-27T07:19:59.300Z,102223.03
2023-02-27T07:22:27.039Z,102231.47
2023-02-27T07:24:54.697Z,102232.81
2023-02-27T07:27:23.779Z,102236.19
2023-02-27T07:29:52.771Z,102242.06
2023-02-27T07:32:20.613Z,102234.31
2023-02-27T07:34:48.455Z,102230.59
2023-02-27T07:37:16.107Z,102234.50
2023-02-27T07:39:44.532Z,102226.06
2023-02-27T07:42:12.499Z,102226.59
2023-02-27T07:44:41.600Z,102226.75
2023-02-27T07:47:09.356Z,102226.59
2023-02-27T07:49:37.056Z,102232.31
2023-02-27T07:52:04.725Z,102226.44
2023-02-27T07:54:34.501Z,102229.47
2023-02-27T07:57:03.392Z,102245.16
2023-02-27T07:59:31.109Z,102246.13
2023-02-27T08:02:00.162Z,102246.16
2023-02-27T08:04:27.872Z,102246.31
2023-02-27T08:06:55.615Z,102238.41
2023-02-27T08:09:23.726Z,102244.47
2023-02-27T08:11:51.366Z,102247.69
2023-02-27T08:14:19.088Z,102247.53
2023-02-27T08:16:46.704Z,102248.03
2023-02-27T08:19:16.160Z,102255.78
2023-02-27T08:21:43.893Z,102254.94
2023-02-27T08:24:12.013Z,102259.66
2023-02-27T08:26:39.686Z,102256.13
2023-02-27T08:29:07.713Z,102260.16
2023-02-27T08:31:35.534Z,102266.06
2023-02-27T08:34:10.290Z,102261.66
2023-02-27T08:36:40.680Z,102265.34
2023-02-27T08:39:09.614Z,102263.00
2023-02-27T08:41:37.685Z,102260.78
2023-02-27T08:44:06.012Z,102259.28
2023-02-27T08:46:33.794Z,102263.97
2023-02-27T08:49:01.424Z,102266.34
2023-02-27T08:51:29.393Z,102270.22
2023-02-27T08:53:59.066Z,102263.25
2023-02-27T08:56:27.318Z,102271.34
2023-02-27T08:58:55.406Z,102264.59
2023-02-27T09:01:23.790Z,102261.88
2023-02-27T09:03:51.516Z,102271.81
2023-02-27T09:06:19.231Z,102265.19
2023-02-27T09:08:46.872Z,102267.03
2023-02-27T09:11:15.912Z,102271.06
2023-02-27T09:13:43.569Z,102265.66
2023-02-27T09:16:11.306Z,102260.91
2023-02-27T09:18:39.049Z,102272.53
2023-02-27T09:21:07.088Z,102275.06
2023-02-27T09:23:34.782Z,102276.41
2023-02-27T09:26:02.661Z,102286.50
2023-02-27T09:28:31.987Z,102281.75
2023-02-27T09:31:01.745Z,102287.28
2023-02-27T09:33:29.433Z,102289.50
2023-02-27T09:35:57.113Z,102295.75
2023-02-27T09:38:24.874Z,102287.97
2023-02-27T09:40:55.000Z,102301.78
2023-02-27T09:43:27.117Z,102306.63
2023-02-27T09:45:58.050Z,102298.81
2023-02-27T09:48:31.399Z,102307.38
2023-02-27T09:50:59.991Z,102310.91
2023-02-27T09:53:31.229Z,102303.13
2023-02-27T09:56:06.373Z,102315.00
2023-02-27T09:58:44.229Z,102321.53
2023-02-27T10:01:17.248Z,102323.06
2023-02-27T10:04:04.276Z,102328.97
2023-02-27T10:06:39.923Z,102331.47
2023-02-27T10:09:20.148Z,102328.72
2023-02-27T10:11:58.137Z,102330.50
2023-02-27T10:14:42.448Z,102337.41
2023-02-27T10:17:17.311Z,102337.91
2023-02-27T10:19:49.209Z,102331.56
2023-02-27T10:22:22.264Z,102339.63
2023-02-27T10:24:54.005Z,102339.91
2023-02-27T10:27:23.079Z,102345.81
2023-02-27T10:29:52.115Z,102336.41
2023-02-27T10:32:24.771Z,102343.41
2023-02-27T10:34:56.437Z,102354.53
2023-02-27T10:37:27.444Z,102356.50
2023-02-27T10:39:58.715Z,102362.00
2023-02-27T10:42:31.149Z,102348.56
2023-02-27T10:44:59.105Z,102352.22
2023-02-27T10:47:28.133Z,102367.91
2023-02-27T10:49:56.274Z,102377.72
2023-02-27T10:52:23.967Z,102377.38
2023-02-27T10:54:52.958Z,102375.75
2023-02-27T10:57:30.298Z,102383.81
2023-02-27T11:00:00.266Z,102384.91
2023-02-27T11:02:36.507Z,102387.81
2023-02-27T11:05:06.246Z,102376.31
2023-02-27T11:07:37.314Z,102378.56
2023-02-27T11:10:17.988Z,102377.91
2023-02-27T11:13:00.381Z,102378.56
2023-02-27T11:15:29.815Z,102372.31
2023-02-27T11:18:21.403Z,102372.97
2023-02-27T11:20:50.860Z,102375.75
2023-02-27T11:23:21.212Z,102374.16
2023-02-27T11:25:49.634Z,102372.28
2023-02-27T11:28:24.150Z,102369.44
2023-02-27T11:31:01.189Z,102370.31
2023-02-27T11:33:33.220Z,102371.78
2023-02-27T11:36:01.221Z,102367.78
2023-02-27T11:38:31.447Z,102363.22
2023-02-27T11:41:01.673Z,102349.97
2023-02-27T11:43:32.290Z,102353.59
2023-02-27T11:46:04.640Z,102351.78
2023-02-27T11:48:53.908Z,102351.00
2023-02-27T11:51:33.011Z,102341.47
2023-02-27T11:54:16.395Z,102358.63
2023-02-27T11:56:47.135Z,102359.22
2023-02-27T11:59:26.306Z,102352.19
2023-02-27T12:02:00.579Z,102340.41
2023-02-27T12:04:34.303Z,102337.31
2023-02-27T12:07:07.389Z,102342.28
2023-02-27T12:09:44.960Z,102337.63
2023-02-27T12:12:21.724Z,102352.22
2023-02-27T12:14:58.109Z,102344.34
2023-02-27T12:17:31.091Z,102345.19
2023-02-27T12:20:18.547Z,102348.66
2023-02-27T12:22:49.263Z,102352.31
2023-02-27T12:25:27.788Z,102350.34
2023-02-27T12:28:00.706Z,102348.59
2023-02-27T12:30:32.740Z,102356.94
2023-02-27T12:33:04.580Z,102356.94
2023-02-27T12:35:34.001Z,102361.13
2023-02-27T12:38:02.630Z,102376.00
2023-02-27T12:40:32.466Z,102373.06
2023-02-27T12:43:24.147Z,102389.13
2023-02-27T12:46:05.078Z,102388.66
2023-02-27T12:48:55.238Z,102388.69
2023-02-27T12:51:34.210Z,102393.00
2023-02-27T12:54:15.961Z,102397.56
2023-02-27T12:56:52.050Z,102380.47
2023-02-27T12:59:45.444Z,102375.78
2023-02-27T13:02:41.741Z,102362.19
2023-02-27T13:05:24.672Z,102365.16
2023-02-27T13:08:00.880Z,102368.47
2023-02-27T13:10:35.377Z,102369.47
2023-02-27T13:13:09.750Z,102369.25
2023-02-27T13:15:44.869Z,102372.47
2023-02-27T13:18:28.623Z,102381.41
2023-02-27T13:21:01.482Z,102378.81
2023-02-27T13:23:36.422Z,102369.63
2023-02-27T13:26:10.970Z,102367.13
2023-02-27T13:28:38.834Z,102378.16
2023-02-27T13:31:13.688Z,102368.72
2023-02-27T13:33:47.899Z,102368.88
2023-02-27T13:36:19.829Z,102378.44
2023-02-27T13:38:51.597Z,102376.78
2023-02-27T13:41:39.309Z,102369.66
2023-02-27T13:44:40.448Z,102366.94
2023-02-27T13:47:40.613Z,102376.16
2023-02-27T13:50:44.095Z,102370.66
2023-02-27T13:53:18.495Z,102376.31
2023-02-27T13:55:47.568Z,102380.44
2023-02-27T13:58:19.088Z,102374.81
2023-02-27T14:00:57.229Z,102375.44
2023-02-27T14:03:27.376Z,102383.88
2023-02-27T14:05:58.821Z,102374.50
2023-02-27T14:08:28.886Z,102372.81
2023-02-27T14:11:02.660Z,102383.91
2023-02-27T14:13:59.753Z,102388.53
2023-02-27T14:16:59.729Z,102386.38
2023-02-27T14:19:49.228Z,102384.91
2023-02-27T14:22:39.007Z,102381.53
2023-02-27T14:25:18.520Z,102387.09
2023-02-27T14:27:52.117Z,102394.41
2023-02-27T14:30:29.033Z,102390.84
2023-02-27T14:33:01.625Z,102399.47
2023-02-27T14:35:31.181Z,102394.34
2023-02-27T14:38:11.761Z,102394.91
2023-02-27T14:40:48.646Z,102390.34
2023-02-27T14:43:29.995Z,102400.16
2023-02-27T14:46:17.378Z,102403.06
2023-02-27T14:48:44.983Z,102402.41
2023-02-27T14:51:12.746Z,102403.63
2023-02-27T14:53:40.613Z,102404.00
2023-02-27T14:56:19.402Z,102405.50
2023-02-27T14:59:03.483Z,102404.78
2023-02-27T15:01:36.328Z,102403.91
2023-02-27T15:04:05.979Z,102400.94
2023-02-27T15:06:40.291Z,102398.63
2023-02-27T15:09:08.788Z,102408.16
2023-02-27T15:11:44.709Z,102399.66
2023-02-27T15:14:21.875Z,102408.66
2023-02-27T15:16:55.747Z,102408.25
2023-02-27T15:19:25.778Z,102407.88
2023-02-27T15:21:55.335Z,102411.06
2023-02-27T15:24:35.245Z,102408.91
2023-02-27T15:27:17.150Z,102403.47
2023-02-27T15:29:50.616Z,102403.88
2023-02-27T15:32:25.043Z,102400.84
2023-02-27T15:34:53.206Z,102401.06
2023-02-27T15:37:23.701Z,102405.63
2023-02-27T15:39:51.662Z,102411.72
2023-02-27T15:42:21.098Z,102411.72
2023-02-27T15:44:50.869Z,102411.72
2023-02-27T15:47:24.513Z,102410.25
2023-02-27T15:49:57.101Z,102425.97
2023-02-27T15:52:27.334Z,102414.44
2023-02-27T15:55:02.439Z,102420.22
2023-02-27T15:57:30.926Z,102412.31
2023-02-27T16:00:01.774Z,102411.44
2023-02-27T16:02:32.512Z,102414.38
2023-02-27T16:05:00.510Z,102409.31
2023-02-27T16:07:30.019Z,102410.16
2023-02-27T16:10:03.919Z,102417.91
2023-02-27T16:12:34.628Z,102421.91
2023-02-27T16:15:22.794Z,102419.78
2023-02-27T16:17:55.604Z,102423.06
2023-02-27T16:20:41.864Z,102422.78
2023-02-27T16:23:20.034Z,102415.78
2023-02-27T16:26:02.890Z,102421.13
2023-02-27T16:28:35.410Z,102410.44
2023-02-27T16:31:04.666Z,102429.16
2023-02-27T16:33:36.601Z,102428.31
2023-02-27T16:36:19.210Z,102434.47
2023-02-27T16:38:47.819Z,102440.28
2023-02-27T16:41:17.414Z,102428.97
2023-02-27T16:43:46.671Z,102440.84
2023-02-27T16:46:20.178Z,102437.28
2023-02-27T16:48:51.449Z,102437.28
2023-02-27T16:51:21.478Z,102437.28
2023-02-27T16:53:49.784Z,102429.72
2023-02-27T16:56:23.733Z,102435.13
2023-02-27T16:58:54.807Z,102435.13
2023-02-27T17:01:23.940Z,102440.34
2023-02-27T17:03:53.052Z,102441.22
2023-02-27T17:06:20.747Z,102445.13
2023-02-27T17:08:48.462Z,102438.66
2023-02-27T17:11:16.158Z,102439.03
2023-02-27T17:13:43.813Z,102442.97
2023-02-27T17:16:18.776Z,102443.34
2023-02-27T17:18:47.829Z,102450.81
2023-02-27T17:21:15.436Z,102441.84
2023-02-27T17:23:43.119Z,102449.31
2023-02-27T17:26:10.781Z,102449.69
2023-02-27T17:28:38.568Z,102445.00
2023-02-27T17:31:08.987Z,102445.84
2023-02-27T17:33:36.554Z,102444.53
2023-02-27T17:36:07.767Z,102455.53
2023-02-27T17:38:36.285Z,102453.69
2023-02-27T17:41:07.813Z,102448.28
2023-02-27T17:43:35.603Z,102452.28
2023-02-27T17:46:06.614Z,102450.59
2023-02-27T17:48:35.528Z,102466.66
2023-02-27T17:51:09.358Z,102452.28
2023-02-27T17:53:37.978Z,102452.81
2023-02-27T17:56:06.683Z,102454.06
2023-02-27T17:58:34.874Z,102451.69
2023-02-27T18:01:05.765Z,102447.97
2023-02-27T18:03:34.043Z,102445.28
2023-02-27T18:06:02.392Z,102444.59
2023-02-27T18:08:32.384Z,102449.34
2023-02-27T18:11:00.476Z,102447.00
2023-02-27T18:13:28.410Z,102441.59
2023-02-27T18:15:57.171Z,102442.81
2023-02-27T18:18:25.152Z,102440.44
2023-02-27T18:21:02.186Z,102443.34
2023-02-27T18:23:31.692Z,102437.72
2023-02-27T18:26:00.211Z,102439.63
2023-02-27T18:28:28.060Z,102441.66
2023-02-27T18:30:56.186Z,102437.94
2023-02-27T18:33:24.056Z,102439.97
2023-02-27T18:35:52.095Z,102450.16
2023-02-27T18:38:19.851Z,102450.88
2023-02-27T18:40:49.025Z,102448.88
2023-02-27T18:43:16.749Z,102457.91
2023-02-27T18:45:44.526Z,102460.53
2023-02-27T18:48:12.165Z,102463.56
2023-02-27T18:50:39.865Z,102463.75
2023-02-27T18:53:07.565Z,102458.03
2023-02-27T18:55:36.147Z,102460.75
2023-02-27T18:58:06.195Z,102459.53
2023-02-27T19:00:34.194Z,102463.47
2023-02-27T19:03:02.003Z,102464.13
2023-02-27T19:05:29.751Z,102473.94
2023-02-27T19:07:58.498Z,102468.66
2023-02-27T19:10:26.107Z,102476.78
2023-02-27T19:12:53.764Z,102476.50
2023-02-27T19:15:22.684Z,102479.38
2023-02-27T19:17:50.341Z,102477.88
2023-02-27T19:20:18.583Z,102479.72
2023-02-27T19:22:46.223Z,102482.28
2023-02-27T19:25:13.922Z,102473.13
2023-02-27T19:27:41.586Z,102468.53
2023-02-27T19:30:10.815Z,102473.78
2023-02-27T19:32:39.828Z,102473.13
2023-02-27T19:35:12.418Z,102474.16
2023-02-27T19:37:40.496Z,102480.28
2023-02-27T19:40:09.781Z,102476.56
2023-02-27T19:42:37.802Z,102482.78
2023-02-27T19:45:06.201Z,102482.78
2023-02-27T19:47:34.432Z,102483.00
2023-02-27T19:50:03.475Z,102488.06
2023-02-27T19:52:31.156Z,102485.84
2023-02-27T19:54:58.860Z,102483.16
2023-02-27T19:57:26.521Z,102484.16
2023-02-27T19:59:54.206Z,102479.28
2023-02-27T20:02:21.924Z,102483.22
2023-02-27T20:04:49.622Z,102482.03
2023-02-27T20:07:19.423Z,102486.59
2023-02-27T20:09:47.038Z,102479.69
2023-02-27T20:12:14.739Z,102477.34
2023-02-27T20:14:42.458Z,102482.91
2023-02-27T20:17:10.110Z,102480.38
2023-02-27T20:19:37.769Z,102476.19
2023-02-27T20:22:05.793Z,102474.84
2023-02-27T20:24:35.085Z,102476.53
2023-02-27T20:27:02.903Z,102479.41
2023-02-27T20:29:30.589Z,102481.94
2023-02-27T20:31:58.398Z,102480.06
2023-02-27T20:34:27.132Z,102478.56
2023-02-27T20:36:57.036Z,102474.84
2023-02-27T20:39:25.277Z,102469.59
2023-02-27T20:41:54.288Z,102473.63
2023-02-27T20:44:22.029Z,102476.84
2023-02-27T20:46:50.038Z,102482.91
2023-02-27T20:49:18.261Z,102479.38
2023-02-27T20:51:46.115Z,102475.97
2023-02-27T20:54:19.880Z,102480.38
2023-02-27T20:56:51.670Z,102482.75
2023-02-27T20:59:22.419Z,102476.31
2023-02-27T21:01:52.341Z,102479.03
2023-02-27T21:04:22.204Z,102487.16
2023-02-27T21:06:50.222Z,102493.22
2023-02-27T21:09:18.777Z,102490.50
2023-02-27T21:11:46.479Z,102487.16
2023-02-27T21:14:14.426Z,102481.06
2023-02-27T21:16:43.427Z,102485.47
2023-02-27T21:19:11.169Z,102491.03
2023-02-27T21:21:38.805Z,102485.97
2023-02-27T21:24:07.216Z,102484.28
2023-02-27T21:26:40.035Z,102483.44
2023-02-27T21:29:09.408Z,102481.59
2023-02-27T21:31:38.537Z,102476.69
2023-02-27T21:34:11.631Z,102478.72
2023-02-27T21:36:42.575Z,102475.72
2023-02-27T21:39:13.248Z,102475.06
2023-02-27T21:41:41.269Z,102478.44
2023-02-27T21:44:10.537Z,102483.13
2023-02-27T21:46:38.490Z,102487.50
2023-02-27T21:49:07.597Z,102489.41
2023-02-27T21:51:40.941Z,102485.16
2023-02-27T21:54:11.525Z,102483.84
2023-02-27T21:56:39.560Z,102491.44
2023-02-27T21:59:07.543Z,102484.34
2023-02-27T22:01:35.844Z,102485.38
2023-02-27T22:04:03.545Z,102482.16
2023-02-27T22:06:34.755Z,102482.69
2023-02-27T22:09:05.329Z,102478.66
2023-02-27T22:11:34.727Z,102477.44
2023-02-27T22:14:02.819Z,102482.69
2023-02-27T22:16:30.505Z,102482.88
2023-02-27T22:18:58.128Z,102484.53
2023-02-27T22:21:28.549Z,102492.19
2023-02-27T22:23:58.200Z,102484.59
2023-02-27T22:26:28.098Z,102482.72
2023-02-27T22:28:57.216Z,102487.28
2023-02-27T22:31:27.826Z,102484.94
2023-02-27T22:33:59.396Z,102477.66
2023-02-27T22:36:30.042Z,102483.41
2023-02-27T22:38:59.772Z,102482.59
2023-02-27T22:41:29.706Z,102484.44
2023-02-27T22:43:58.533Z,102490.84
2023-02-27T22:46:28.400Z,102488.16
2023-02-27T22:48:56.919Z,102489.16
2023-02-27T22:51:27.700Z,102490.34
2023-02-27T22:53:57.031Z,102487.63
2023-02-27T22:56:26.942Z,102494.72
2023-02-27T22:58:55.078Z,102495.59
2023-02-27T23:01:24.664Z,102500.81
2023-02-27T23:03:53.779Z,102500.66
2023-02-27T23:06:26.547Z,102505.91
2023-02-27T23:08:54.262Z,102504.38
2023-02-27T23:11:22.301Z,102499.47
2023-02-27T23:13:51.537Z,102501.50
2023-02-27T23:16:19.750Z,102504.41
2023-02-27T23:18:50.181Z,102506.09
2023-02-27T23:21:19.003Z,102507.09
2023-02-27T23:23:46.951Z,102513.53
2023-02-27T23:26:16.287Z,102514.34
2023-02-27T23:28:43.925Z,102512.66
2023-02-27T23:31:13.148Z,102517.91
2023-02-27T23:33:40.776Z,102515.22
2023-02-27T23:36:08.672Z,102517.22
2023-02-27T23:38:36.496Z,102518.41
2023-02-27T23:41:08.406Z,102518.41
2023-02-27T23:43:36.574Z,102520.25
2023-02-27T23:46:08.419Z,102517.38
2023-02-27T23:48:37.854Z,102520.94
2023-02-27T23:51:07.360Z,102526.16
2023-02-27T23:53:36.222Z,102521.44
2023-02-27T23:56:13.204Z,102521.94
2023-02-27T23:58:40.848Z,102529.22
